createdAt,value
2023-01-19T00:33:24.985Z,-0.75
2023-01-19T01:07:45.903Z,-1.22
2023-01-19T01:12:05.999Z,-1.27
2023-01-19T01:16:16.646Z,-1.29
2023-01-19T01:20:46.225Z,-1.30
2023-01-19T01:25:03.886Z,-1.31
2023-01-19T01:28:41.925Z,-1.30
2023-01-19T01:32:46.830Z,-1.29
2023-01-19T02:02:28.659Z,-1.25
2023-01-19T02:06:42.796Z,-1.25
2023-01-19T02:11:10.636Z,-1.25
2023-01-19T02:15:35.065Z,-1.27
2023-01-19T02:19:59.220Z,-1.30
2023-01-19T02:23:54.722Z,-1.31
2023-01-19T03:05:38.768Z,-1.49
2023-01-19T03:10:10.687Z,-1.55
2023-01-19T03:14:19.108Z,-1.60
2023-01-19T03:18:38.202Z,-1.66
2023-01-19T03:23:02.371Z,-1.73
2023-01-19T03:27:33.912Z,-1.80
2023-01-19T03:57:02.722Z,-1.71
2023-01-19T04:01:03.562Z,-1.63
2023-01-19T04:05:17.614Z,-1.56
2023-01-19T04:09:47.703Z,-1.49
2023-01-19T04:13:58.498Z,-1.46
2023-01-19T04:44:28.227Z,-1.14
2023-01-19T05:10:18.953Z,-0.72
2023-01-19T05:14:48.220Z,-0.73
2023-01-19T05:19:12.672Z,-0.76
2023-01-19T05:23:32.019Z,-0.77
2023-01-19T05:27:46.776Z,-0.81
2023-01-19T05:32:07.567Z,-0.85
2023-01-19T05:36:12.920Z,-0.89
2023-01-19T05:40:17.689Z,-0.94
2023-01-19T05:44:28.872Z,-0.97
2023-01-19T06:05:23.309Z,-0.92
2023-01-19T06:09:44.441Z,-0.93
2023-01-19T06:14:09.477Z,-0.96
2023-01-19T06:18:18.685Z,-0.97
2023-01-19T06:22:52.765Z,-0.98
2023-01-19T06:36:05.023Z,-0.90
2023-01-19T06:40:33.851Z,-0.90
2023-01-19T06:44:37.321Z,-0.88
2023-01-19T06:48:39.032Z,-0.88
2023-01-19T06:52:08.386Z,-0.87
2023-01-19T06:56:19.794Z,-0.87
2023-01-19T07:00:47.164Z,-0.89
2023-01-19T07:04:26.675Z,-0.90
2023-01-19T07:08:48.143Z,-0.90
2023-01-19T07:17:02.400Z,-0.88
2023-01-19T07:20:57.024Z,-0.89
2023-01-19T07:25:24.962Z,-0.90
2023-01-19T07:29:46.318Z,-0.92
2023-01-19T07:51:45.457Z,-0.87
2023-01-19T07:56:14.126Z,-0.90
2023-01-19T08:00:35.523Z,-0.90
2023-01-19T08:04:56.715Z,-0.85
2023-01-19T08:22:09.193Z,-0.77
2023-01-19T08:26:35.071Z,-0.76
2023-01-19T08:30:57.976Z,-0.75
2023-01-19T08:35:09.858Z,-0.76
2023-01-19T08:39:29.027Z,-0.71
2023-01-19T08:44:00.973Z,-0.65
2023-01-19T09:05:09.295Z,-0.36
2023-01-19T09:09:20.802Z,-0.36
2023-01-19T09:12:52.221Z,-0.34
2023-01-19T09:17:21.469Z,-0.28
2023-01-19T09:21:49.911Z,-0.24
2023-01-19T09:25:51.690Z,-0.20
2023-01-19T09:30:14.677Z,-0.14
2023-01-19T09:55:49.051Z,0.11
2023-01-19T09:59:43.994Z,0.20
2023-01-19T10:03:40.777Z,0.27
2023-01-19T10:08:03.744Z,0.30
2023-01-19T10:12:40.360Z,0.35
2023-01-19T10:16:55.544Z,0.42
2023-01-19T10:21:20.118Z,0.42
2023-01-19T11:29:20.170Z,0.77
2023-01-19T11:32:30.859Z,0.77
2023-01-19T11:36:45.290Z,0.85
2023-01-19T11:41:08.361Z,0.93
2023-01-19T11:45:10.678Z,1.01
2023-01-19T11:49:02.243Z,1.05
2023-01-19T11:53:17.112Z,1.03
2023-01-19T11:57:19.614Z,1.07
2023-01-19T12:01:31.067Z,1.11
2023-01-19T12:05:34.632Z,1.18
2023-01-19T12:09:46.104Z,1.19
2023-01-19T12:13:55.742Z,1.20
2023-01-19T12:17:43.313Z,1.26
2023-01-19T12:21:15.693Z,1.31
2023-01-19T12:25:11.906Z,1.35
2023-01-19T12:28:29.865Z,1.42
2023-01-19T12:31:51.610Z,1.47
2023-01-19T12:35:48.426Z,1.52
2023-01-19T12:39:45.264Z,1.54
2023-01-19T12:43:59.505Z,1.54
2023-01-19T12:48:28.463Z,1.56
2023-01-19T12:52:50.276Z,1.58
2023-01-19T12:57:17.827Z,1.59
2023-01-19T13:23:50.362Z,1.64
2023-01-19T13:28:19.390Z,1.58
2023-01-19T13:32:39.010Z,1.54
2023-01-19T13:36:51.230Z,1.51
2023-01-19T14:11:07.631Z,2.09
2023-01-19T14:15:37.347Z,2.13
2023-01-19T14:19:37.939Z,2.16
2023-01-19T14:37:26.552Z,2.15
2023-01-19T14:41:45.818Z,1.99
2023-01-19T14:46:17.217Z,1.87
2023-01-19T14:50:17.249Z,1.70
2023-01-19T14:54:27.135Z,1.54
2023-01-19T15:20:41.019Z,0.74
2023-01-19T15:24:58.792Z,0.61
2023-01-19T15:47:03.887Z,0.24
2023-01-19T15:51:15.862Z,0.16
2023-01-19T15:55:49.982Z,0.08
2023-01-19T16:08:46.632Z,-0.03
2023-01-19T16:13:07.059Z,-0.06
2023-01-19T16:30:07.182Z,-0.05
2023-01-19T16:34:36.039Z,-0.06
2023-01-19T16:39:06.234Z,-0.06
2023-01-19T16:43:37.912Z,-0.04
2023-01-19T16:48:07.777Z,-0.05
2023-01-19T17:09:51.489Z,-0.01
2023-01-19T17:14:23.457Z,-0.03
2023-01-19T17:26:52.457Z,0.09
2023-01-19T17:31:22.134Z,0.12
2023-01-19T17:35:51.635Z,0.14
2023-01-19T17:40:14.538Z,0.18
2023-01-19T18:49:53.061Z,0.54
2023-01-19T18:53:57.106Z,0.56
2023-01-19T18:58:17.650Z,0.57
2023-01-19T19:02:46.558Z,0.58
2023-01-19T19:32:48.993Z,0.51
2023-01-19T19:36:57.377Z,0.45
2023-01-19T19:41:25.002Z,0.35
2023-01-19T19:45:55.821Z,0.29
2023-01-19T19:50:25.456Z,0.26
2023-01-19T20:16:14.358Z,0.07
2023-01-19T20:20:43.147Z,0.08
2023-01-19T20:25:15.666Z,0.07
2023-01-19T20:38:11.656Z,0.10
2023-01-19T20:42:40.562Z,0.10
2023-01-19T20:46:30.114Z,0.13
2023-01-19T20:50:46.291Z,0.16
2023-01-19T20:55:16.021Z,0.17
2023-01-19T20:59:34.089Z,0.20
2023-01-19T21:03:55.509Z,0.25
2023-01-19T21:30:10.173Z,0.54
2023-01-19T21:34:39.152Z,0.60
2023-01-19T21:39:08.601Z,0.59
2023-01-19T21:56:31.251Z,0.74
2023-01-19T22:01:00.152Z,0.74
2023-01-19T22:22:53.753Z,0.83
2023-01-19T22:27:23.507Z,0.81
2023-01-19T22:44:49.251Z,0.81
2023-01-19T22:49:17.927Z,0.78
2023-01-19T22:53:46.856Z,0.77
2023-01-19T23:20:08.185Z,0.82
2023-01-19T23:24:37.043Z,0.84
2023-01-19T23:29:05.874Z,0.87
2023-01-19T23:50:49.585Z,1.04
2023-01-19T23:55:18.367Z,1.07
2023-01-19T23:59:47.099Z,1.08
